sensor_id;sensor_type;location;lat;lon;timestamp;temperature;humidity
8872;DHT22;4472;52.092;9.820;2022-11-15T00:01:38;8.90;99.90
8872;DHT22;4472;52.092;9.820;2022-11-15T00:04:26;9.20;99.90
8872;DHT22;4472;52.092;9.820;2022-11-15T00:07:14;9.20;99.90
8872;DHT22;4472;52.092;9.820;2022-11-15T00:10:02;9.30;99.90
8872;DHT22;4472;52.092;9.820;2022-11-15T00:12:49;9.50;99.90
8872;DHT22;4472;52.092;9.820;2022-11-15T00:15:37;9.70;99.90
8872;DHT22;4472;52.092;9.820;2022-11-15T00:18:24;9.80;99.90
8872;DHT22;4472;52.092;9.820;2022-11-15T00:21:12;9.90;99.90
8872;DHT22;4472;52.092;9.820;2022-11-15T00:24:01;10.10;99.90
8872;DHT22;4472;52.092;9.820;2022-11-15T00:26:48;10.10;99.90
8872;DHT22;4472;52.092;9.820;2022-11-15T00:29:36;10.10;99.90
8872;DHT22;4472;52.092;9.820;2022-11-15T00:32:24;10.20;99.90
8872;DHT22;4472;52.092;9.820;2022-11-15T00:35:11;10.20;99.90
8872;DHT22;4472;52.092;9.820;2022-11-15T00:37:58;10.30;99.90
8872;DHT22;4472;52.092;9.820;2022-11-15T00:40:47;10.20;99.90
8872;DHT22;4472;52.092;9.820;2022-11-15T00:43:34;10.30;99.90
8872;DHT22;4472;52.092;9.820;2022-11-15T00:46:22;10.50;99.90
8872;DHT22;4472;52.092;9.820;2022-11-15T00:49:09;10.50;99.90
8872;DHT22;4472;52.092;9.820;2022-11-15T00:51:56;10.50;99.90
8872;DHT22;4472;52.092;9.820;2022-11-15T00:54:43;10.40;99.90
8872;DHT22;4472;52.092;9.820;2022-11-15T00:57:32;10.50;99.90
8872;DHT22;4472;52.092;9.820;2022-11-15T01:00:19;10.60;99.90
8872;DHT22;4472;52.092;9.820;2022-11-15T01:03:06;10.50;99.90
8872;DHT22;4472;52.092;9.820;2022-11-15T01:05:53;10.50;99.90
8872;DHT22;4472;52.092;9.820;2022-11-15T01:08:40;10.60;99.90
8872;DHT22;4472;52.092;9.820;2022-11-15T01:11:28;10.60;99.90
8872;DHT22;4472;52.092;9.820;2022-11-15T01:14:16;10.60;99.90
8872;DHT22;4472;52.092;9.820;2022-11-15T01:17:03;10.60;99.90
8872;DHT22;4472;52.092;9.820;2022-11-15T01:19:50;10.60;99.90
8872;DHT22;4472;52.092;9.820;2022-11-15T01:22:37;10.60;99.90
8872;DHT22;4472;52.092;9.820;2022-11-15T01:25:25;10.20;99.90
8872;DHT22;4472;52.092;9.820;2022-11-15T01:28:12;10.60;99.90
8872;DHT22;4472;52.092;9.820;2022-11-15T01:31:01;10.70;99.90
8872;DHT22;4472;52.092;9.820;2022-11-15T01:33:49;10.70;99.90
8872;DHT22;4472;52.092;9.820;2022-11-15T01:36:36;10.70;99.90
8872;DHT22;4472;52.092;9.820;2022-11-15T01:39:24;10.70;99.90
8872;DHT22;4472;52.092;9.820;2022-11-15T01:42:12;10.70;99.90
8872;DHT22;4472;52.092;9.820;2022-11-15T01:45:00;10.90;99.90
8872;DHT22;4472;52.092;9.820;2022-11-15T01:47:51;11.00;99.90
8872;DHT22;4472;52.092;9.820;2022-11-15T01:50:39;11.00;99.90
8872;DHT22;4472;52.092;9.820;2022-11-15T01:53:27;11.20;99.90
8872;DHT22;4472;52.092;9.820;2022-11-15T01:56:18;10.60;99.90
8872;DHT22;4472;52.092;9.820;2022-11-15T01:59:08;11.30;99.90
8872;DHT22;4472;52.092;9.820;2022-11-15T02:01:55;11.80;99.90
8872;DHT22;4472;52.092;9.820;2022-11-15T02:04:46;11.50;99.90
8872;DHT22;4472;52.092;9.820;2022-11-15T02:07:35;11.70;99.90
8872;DHT22;4472;52.092;9.820;2022-11-15T02:10:24;11.60;99.90
8872;DHT22;4472;52.092;9.820;2022-11-15T02:13:11;12.50;99.90
8872;DHT22;4472;52.092;9.820;2022-11-15T02:16:09;11.80;99.90
8872;DHT22;4472;52.092;9.820;2022-11-15T02:19:05;11.70;99.90
8872;DHT22;4472;52.092;9.820;2022-11-15T02:22:09;11.80;99.90
8872;DHT22;4472;52.092;9.820;2022-11-15T02:25:14;11.80;99.90
8872;DHT22;4472;52.092;9.820;2022-11-15T02:28:28;11.40;99.90
8872;DHT22;4472;52.092;9.820;2022-11-15T02:31:24;11.90;99.90
8872;DHT22;4472;52.092;9.820;2022-11-15T02:34:20;11.80;99.90
8872;DHT22;4472;52.092;9.820;2022-11-15T02:37:15;11.80;99.90
8872;DHT22;4472;52.092;9.820;2022-11-15T02:40:10;11.90;99.90
8872;DHT22;4472;52.092;9.820;2022-11-15T02:43:04;11.80;99.90
8872;DHT22;4472;52.092;9.820;2022-11-15T02:46:17;11.80;99.90
8872;DHT22;4472;52.092;9.820;2022-11-15T02:49:06;11.80;99.90
8872;DHT22;4472;52.092;9.820;2022-11-15T02:51:55;11.70;99.90
8872;DHT22;4472;52.092;9.820;2022-11-15T02:54:43;11.70;99.90
8872;DHT22;4472;52.092;9.820;2022-11-15T02:57:39;11.80;99.90
8872;DHT22;4472;52.092;9.820;2022-11-15T03:00:28;11.70;99.90
8872;DHT22;4472;52.092;9.820;2022-11-15T03:03:31;11.50;99.90
8872;DHT22;4472;52.092;9.820;2022-11-15T03:06:30;11.70;99.90
8872;DHT22;4472;52.092;9.820;2022-11-15T03:09:26;11.70;99.90
8872;DHT22;4472;52.092;9.820;2022-11-15T03:12:22;11.60;99.90
8872;DHT22;4472;52.092;9.820;2022-11-15T03:15:15;11.60;99.90
8872;DHT22;4472;52.092;9.820;2022-11-15T03:18:10;11.60;99.90
8872;DHT22;4472;52.092;9.820;2022-11-15T03:21:01;11.70;99.90
8872;DHT22;4472;52.092;9.820;2022-11-15T03:23:54;11.50;99.90
8872;DHT22;4472;52.092;9.820;2022-11-15T03:26:44;11.50;99.90
8872;DHT22;4472;52.092;9.820;2022-11-15T03:29:34;11.40;99.90
8872;DHT22;4472;52.092;9.820;2022-11-15T03:32:25;11.50;99.90
8872;DHT22;4472;52.092;9.820;2022-11-15T03:35:18;11.40;99.90
8872;DHT22;4472;52.092;9.820;2022-11-15T03:38:11;11.30;99.90
8872;DHT22;4472;52.092;9.820;2022-11-15T03:41:06;11.30;99.90
8872;DHT22;4472;52.092;9.820;2022-11-15T03:43:59;11.40;99.90
8872;DHT22;4472;52.092;9.820;2022-11-15T03:46:55;11.20;99.90
8872;DHT22;4472;52.092;9.820;2022-11-15T03:49:49;11.10;99.90
8872;DHT22;4472;52.092;9.820;2022-11-15T03:52:37;11.10;99.90
8872;DHT22;4472;52.092;9.820;2022-11-15T03:55:27;11.20;99.90
8872;DHT22;4472;52.092;9.820;2022-11-15T03:58:15;11.10;99.90
8872;DHT22;4472;52.092;9.820;2022-11-15T04:01:02;11.00;99.90
8872;DHT22;4472;52.092;9.820;2022-11-15T04:03:50;11.10;99.90
8872;DHT22;4472;52.092;9.820;2022-11-15T04:06:38;11.00;99.90
8872;DHT22;4472;52.092;9.820;2022-11-15T04:09:25;11.00;99.90
8872;DHT22;4472;52.092;9.820;2022-11-15T04:12:12;11.10;99.90
8872;DHT22;4472;52.092;9.820;2022-11-15T04:15:20;11.00;99.90
8872;DHT22;4472;52.092;9.820;2022-11-15T04:18:07;11.10;99.90
8872;DHT22;4472;52.092;9.820;2022-11-15T04:20:54;11.00;99.90
8872;DHT22;4472;52.092;9.820;2022-11-15T04:23:58;11.20;99.90
8872;DHT22;4472;52.092;9.820;2022-11-15T04:27:01;11.10;99.90
8872;DHT22;4472;52.092;9.820;2022-11-15T04:29:48;11.10;99.90
8872;DHT22;4472;52.092;9.820;2022-11-15T04:32:37;11.10;99.90
8872;DHT22;4472;52.092;9.820;2022-11-15T04:35:24;11.10;99.90
8872;DHT22;4472;52.092;9.820;2022-11-15T04:38:11;11.10;99.90
8872;DHT22;4472;52.092;9.820;2022-11-15T04:40:58;11.10;99.90
8872;DHT22;4472;52.092;9.820;2022-11-15T04:43:46;11.10;99.90
8872;DHT22;4472;52.092;9.820;2022-11-15T04:46:33;11.30;99.90
8872;DHT22;4472;52.092;9.820;2022-11-15T04:49:21;11.30;99.90
8872;DHT22;4472;52.092;9.820;2022-11-15T04:52:09;11.30;99.90
8872;DHT22;4472;52.092;9.820;2022-11-15T04:54:56;11.30;99.90
8872;DHT22;4472;52.092;9.820;2022-11-15T04:57:43;11.30;99.90
8872;DHT22;4472;52.092;9.820;2022-11-15T05:00:30;11.30;99.90
8872;DHT22;4472;52.092;9.820;2022-11-15T05:03:17;11.20;99.90
8872;DHT22;4472;52.092;9.820;2022-11-15T05:06:23;11.30;99.90
8872;DHT22;4472;52.092;9.820;2022-11-15T05:09:10;11.30;99.90
8872;DHT22;4472;52.092;9.820;2022-11-15T05:11:58;11.30;99.90
8872;DHT22;4472;52.092;9.820;2022-11-15T05:14:45;11.50;99.90
8872;DHT22;4472;52.092;9.820;2022-11-15T05:17:34;11.40;99.90
8872;DHT22;4472;52.092;9.820;2022-11-15T05:20:21;11.50;99.90
8872;DHT22;4472;52.092;9.820;2022-11-15T05:23:10;11.40;99.90
8872;DHT22;4472;52.092;9.820;2022-11-15T05:25:58;11.50;99.90
8872;DHT22;4472;52.092;9.820;2022-11-15T05:28:46;11.40;99.90
8872;DHT22;4472;52.092;9.820;2022-11-15T05:31:33;11.50;99.90
8872;DHT22;4472;52.092;9.820;2022-11-15T05:34:20;11.50;99.90
8872;DHT22;4472;52.092;9.820;2022-11-15T05:37:08;11.50;99.90
8872;DHT22;4472;52.092;9.820;2022-11-15T05:39:57;11.40;99.90
8872;DHT22;4472;52.092;9.820;2022-11-15T05:42:44;11.40;99.90
8872;DHT22;4472;52.092;9.820;2022-11-15T05:45:32;11.40;99.90
8872;DHT22;4472;52.092;9.820;2022-11-15T05:48:20;11.50;99.90
8872;DHT22;4472;52.092;9.820;2022-11-15T05:51:07;11.50;99.90
8872;DHT22;4472;52.092;9.820;2022-11-15T05:53:56;11.40;99.90
8872;DHT22;4472;52.092;9.820;2022-11-15T05:56:46;11.40;99.90
8872;DHT22;4472;52.092;9.820;2022-11-15T05:59:33;11.40;99.90
8872;DHT22;4472;52.092;9.820;2022-11-15T06:02:21;11.30;99.90
8872;DHT22;4472;52.092;9.820;2022-11-15T06:05:08;11.30;99.90
8872;DHT22;4472;52.092;9.820;2022-11-15T06:07:57;11.20;99.90
8872;DHT22;4472;52.092;9.820;2022-11-15T06:10:44;11.10;99.90
8872;DHT22;4472;52.092;9.820;2022-11-15T06:13:33;11.00;99.90
8872;DHT22;4472;52.092;9.820;2022-11-15T06:16:20;10.90;99.90
8872;DHT22;4472;52.092;9.820;2022-11-15T06:19:07;10.90;99.90
8872;DHT22;4472;52.092;9.820;2022-11-15T06:21:55;10.80;99.90
8872;DHT22;4472;52.092;9.820;2022-11-15T06:24:42;10.80;99.90
8872;DHT22;4472;52.092;9.820;2022-11-15T06:27:29;10.60;99.90
8872;DHT22;4472;52.092;9.820;2022-11-15T06:30:18;10.60;99.90
8872;DHT22;4472;52.092;9.820;2022-11-15T06:33:06;10.60;99.90
8872;DHT22;4472;52.092;9.820;2022-11-15T06:35:54;10.60;99.90
8872;DHT22;4472;52.092;9.820;2022-11-15T06:38:41;10.50;99.90
8872;DHT22;4472;52.092;9.820;2022-11-15T06:41:29;10.50;99.90
8872;DHT22;4472;52.092;9.820;2022-11-15T06:44:16;10.60;99.90
8872;DHT22;4472;52.092;9.820;2022-11-15T06:47:04;10.50;99.90
8872;DHT22;4472;52.092;9.820;2022-11-15T06:49:51;10.60;99.90
8872;DHT22;4472;52.092;9.820;2022-11-15T06:52:39;10.50;99.90
8872;DHT22;4472;52.092;9.820;2022-11-15T06:55:26;10.40;99.90
8872;DHT22;4472;52.092;9.820;2022-11-15T06:58:13;10.60;99.90
8872;DHT22;4472;52.092;9.820;2022-11-15T07:01:02;10.70;99.90
8872;DHT22;4472;52.092;9.820;2022-11-15T07:03:50;10.70;99.90
8872;DHT22;4472;52.092;9.820;2022-11-15T07:06:37;10.80;99.90
8872;DHT22;4472;52.092;9.820;2022-11-15T07:09:24;10.80;99.90
8872;DHT22;4472;52.092;9.820;2022-11-15T07:12:12;10.80;99.90
8872;DHT22;4472;52.092;9.820;2022-11-15T07:15:00;11.10;99.90
8872;DHT22;4472;52.092;9.820;2022-11-15T07:17:47;10.70;99.90
8872;DHT22;4472;52.092;9.820;2022-11-15T07:20:36;10.80;99.90
8872;DHT22;4472;52.092;9.820;2022-11-15T07:23:23;10.70;99.90
8872;DHT22;4472;52.092;9.820;2022-11-15T07:26:10;10.80;99.90
8872;DHT22;4472;52.092;9.820;2022-11-15T07:28:57;10.70;99.90
8872;DHT22;4472;52.092;9.820;2022-11-15T07:31:44;10.70;99.90
8872;DHT22;4472;52.092;9.820;2022-11-15T07:34:31;10.70;99.90
8872;DHT22;4472;52.092;9.820;2022-11-15T07:37:20;10.70;99.90
8872;DHT22;4472;52.092;9.820;2022-11-15T07:40:09;10.60;99.90
8872;DHT22;4472;52.092;9.820;2022-11-15T07:42:59;10.60;99.90
8872;DHT22;4472;52.092;9.820;2022-11-15T07:45:46;10.90;99.90
8872;DHT22;4472;52.092;9.820;2022-11-15T07:48:34;10.50;99.90
8872;DHT22;4472;52.092;9.820;2022-11-15T07:51:21;10.60;99.90
8872;DHT22;4472;52.092;9.820;2022-11-15T07:54:09;10.60;99.90
8872;DHT22;4472;52.092;9.820;2022-11-15T07:56:56;10.60;99.90
8872;DHT22;4472;52.092;9.820;2022-11-15T07:59:44;10.70;99.90
8872;DHT22;4472;52.092;9.820;2022-11-15T08:02:31;10.70;99.90
8872;DHT22;4472;52.092;9.820;2022-11-15T08:05:19;10.70;99.90
8872;DHT22;4472;52.092;9.820;2022-11-15T08:08:06;10.70;99.90
8872;DHT22;4472;52.092;9.820;2022-11-15T08:10:57;10.90;99.90
8872;DHT22;4472;52.092;9.820;2022-11-15T08:13:44;10.60;99.90
8872;DHT22;4472;52.092;9.820;2022-11-15T08:16:31;10.80;99.90
8872;DHT22;4472;52.092;9.820;2022-11-15T08:19:19;10.90;99.90
8872;DHT22;4472;52.092;9.820;2022-11-15T08:22:07;11.00;99.90
8872;DHT22;4472;52.092;9.820;2022-11-15T08:25:00;11.10;99.90
8872;DHT22;4472;52.092;9.820;2022-11-15T08:27:51;10.50;99.90
8872;DHT22;4472;52.092;9.820;2022-11-15T08:30:39;11.30;99.90
8872;DHT22;4472;52.092;9.820;2022-11-15T08:33:28;11.50;99.90
8872;DHT22;4472;52.092;9.820;2022-11-15T08:36:16;11.60;99.90
8872;DHT22;4472;52.092;9.820;2022-11-15T08:39:04;11.60;99.90
8872;DHT22;4472;52.092;9.820;2022-11-15T08:41:51;11.70;99.90
8872;DHT22;4472;52.092;9.820;2022-11-15T08:44:40;11.80;99.90
8872;DHT22;4472;52.092;9.820;2022-11-15T08:47:27;11.90;99.90
8872;DHT22;4472;52.092;9.820;2022-11-15T08:50:15;12.10;99.90
8872;DHT22;4472;52.092;9.820;2022-11-15T08:53:06;12.10;99.90
8872;DHT22;4472;52.092;9.820;2022-11-15T08:55:54;12.20;99.90
8872;DHT22;4472;52.092;9.820;2022-11-15T08:58:41;12.40;99.90
8872;DHT22;4472;52.092;9.820;2022-11-15T09:07:06;12.70;99.90
8872;DHT22;4472;52.092;9.820;2022-11-15T09:09:54;12.80;99.90
8872;DHT22;4472;52.092;9.820;2022-11-15T09:12:41;12.90;99.90
8872;DHT22;4472;52.092;9.820;2022-11-15T09:15:29;13.00;99.90
8872;DHT22;4472;52.092;9.820;2022-11-15T09:18:17;13.10;99.90
8872;DHT22;4472;52.092;9.820;2022-11-15T09:21:06;13.10;99.90
8872;DHT22;4472;52.092;9.820;2022-11-15T09:23:53;13.20;99.90
8872;DHT22;4472;52.092;9.820;2022-11-15T09:37:52;13.40;99.90
8872;DHT22;4472;52.092;9.820;2022-11-15T09:43:32;13.50;99.90
8872;DHT22;4472;52.092;9.820;2022-11-15T09:49:14;13.60;99.90
8872;DHT22;4472;52.092;9.820;2022-11-15T09:52:04;13.70;99.90
8872;DHT22;4472;52.092;9.820;2022-11-15T09:57:44;13.70;99.90
8872;DHT22;4472;52.092;9.820;2022-11-15T10:03:26;13.80;99.90
8872;DHT22;4472;52.092;9.820;2022-11-15T10:06:22;13.90;99.90
8872;DHT22;4472;52.092;9.820;2022-11-15T10:09:15;14.00;99.90
8872;DHT22;4472;52.092;9.820;2022-11-15T10:15:02;14.00;99.90
8872;DHT22;4472;52.092;9.820;2022-11-15T10:18:06;14.10;99.90
8872;DHT22;4472;52.092;9.820;2022-11-15T10:20:58;14.10;99.90
8872;DHT22;4472;52.092;9.820;2022-11-15T10:23:45;14.10;99.90
8872;DHT22;4472;52.092;9.820;2022-11-15T10:26:34;14.30;99.90
8872;DHT22;4472;52.092;9.820;2022-11-15T10:29:23;14.20;99.90
8872;DHT22;4472;52.092;9.820;2022-11-15T10:32:11;14.30;99.90
8872;DHT22;4472;52.092;9.820;2022-11-15T10:34:59;14.20;99.90
8872;DHT22;4472;52.092;9.820;2022-11-15T10:37:46;14.10;99.90
8872;DHT22;4472;52.092;9.820;2022-11-15T10:40:34;14.00;99.90
8872;DHT22;4472;52.092;9.820;2022-11-15T10:46:19;14.10;99.90
8872;DHT22;4472;52.092;9.820;2022-11-15T10:49:13;14.30;99.90
8872;DHT22;4472;52.092;9.820;2022-11-15T10:52:03;14.20;99.90
8872;DHT22;4472;52.092;9.820;2022-11-15T10:54:54;14.30;99.90
8872;DHT22;4472;52.092;9.820;2022-11-15T10:57:49;14.40;99.90
8872;DHT22;4472;52.092;9.820;2022-11-15T11:00:38;14.50;99.90
8872;DHT22;4472;52.092;9.820;2022-11-15T11:06:17;14.40;99.90
8872;DHT22;4472;52.092;9.820;2022-11-15T11:09:05;14.60;99.90
8872;DHT22;4472;52.092;9.820;2022-11-15T11:11:53;14.60;99.90
8872;DHT22;4472;52.092;9.820;2022-11-15T11:14:40;14.70;99.90
8872;DHT22;4472;52.092;9.820;2022-11-15T11:17:36;14.70;99.90
8872;DHT22;4472;52.092;9.820;2022-11-15T11:20:31;14.70;99.90
8872;DHT22;4472;52.092;9.820;2022-11-15T11:29:27;14.70;99.90
8872;DHT22;4472;52.092;9.820;2022-11-15T11:32:29;14.70;99.90
8872;DHT22;4472;52.092;9.820;2022-11-15T11:35:22;14.80;99.90
8872;DHT22;4472;52.092;9.820;2022-11-15T11:38:20;14.70;99.90
8872;DHT22;4472;52.092;9.820;2022-11-15T11:41:15;14.70;99.90
8872;DHT22;4472;52.092;9.820;2022-11-15T11:44:16;14.70;99.90
8872;DHT22;4472;52.092;9.820;2022-11-15T11:47:09;14.70;99.90
8872;DHT22;4472;52.092;9.820;2022-11-15T11:50:00;14.70;99.90
8872;DHT22;4472;52.092;9.820;2022-11-15T11:52:57;14.70;99.90
8872;DHT22;4472;52.092;9.820;2022-11-15T11:55:47;14.70;99.90
8872;DHT22;4472;52.092;9.820;2022-11-15T12:04:20;14.70;99.90
8872;DHT22;4472;52.092;9.820;2022-11-15T12:07:13;15.30;99.90
8872;DHT22;4472;52.092;9.820;2022-11-15T12:10:11;14.70;99.90
8872;DHT22;4472;52.092;9.820;2022-11-15T12:32:58;14.40;99.90
8872;DHT22;4472;52.092;9.820;2022-11-15T12:35:58;14.40;99.90
8872;DHT22;4472;52.092;9.820;2022-11-15T12:38:56;14.50;99.90
8872;DHT22;4472;52.092;9.820;2022-11-15T12:42:35;14.50;99.90
8872;DHT22;4472;52.092;9.820;2022-11-15T12:44:59;14.70;99.90
8872;DHT22;4472;52.092;9.820;2022-11-15T12:47:46;14.60;99.90
8872;DHT22;4472;52.092;9.820;2022-11-15T12:50:55;14.50;99.90
8872;DHT22;4472;52.092;9.820;2022-11-15T12:53:43;14.60;99.90
8872;DHT22;4472;52.092;9.820;2022-11-15T12:56:31;14.60;99.90
8872;DHT22;4472;52.092;9.820;2022-11-15T12:59:47;14.50;99.90
8872;DHT22;4472;52.092;9.820;2022-11-15T13:02:37;14.60;99.90
8872;DHT22;4472;52.092;9.820;2022-11-15T13:06:01;14.50;99.90
8872;DHT22;4472;52.092;9.820;2022-11-15T13:08:50;14.50;99.90
8872;DHT22;4472;52.092;9.820;2022-11-15T13:11:45;14.60;99.90
8872;DHT22;4472;52.092;9.820;2022-11-15T13:14:45;14.60;99.90
8872;DHT22;4472;52.092;9.820;2022-11-15T13:17:38;14.60;99.90
8872;DHT22;4472;52.092;9.820;2022-11-15T13:20:27;14.60;99.90
8872;DHT22;4472;52.092;9.820;2022-11-15T13:23:15;14.50;99.90
8872;DHT22;4472;52.092;9.820;2022-11-15T13:26:10;14.60;99.90
8872;DHT22;4472;52.092;9.820;2022-11-15T13:28:58;14.60;99.90
8872;DHT22;4472;52.092;9.820;2022-11-15T13:31:47;14.60;99.90
8872;DHT22;4472;52.092;9.820;2022-11-15T13:34:37;14.60;99.90
8872;DHT22;4472;52.092;9.820;2022-11-15T13:37:29;14.60;99.90
8872;DHT22;4472;52.092;9.820;2022-11-15T13:40:27;14.60;99.90
8872;DHT22;4472;52.092;9.820;2022-11-15T13:43:26;14.50;99.90
8872;DHT22;4472;52.092;9.820;2022-11-15T13:46:17;14.80;99.90
8872;DHT22;4472;52.092;9.820;2022-11-15T13:49:07;14.80;99.90
8872;DHT22;4472;52.092;9.820;2022-11-15T13:51:59;15.00;99.90
8872;DHT22;4472;52.092;9.820;2022-11-15T13:54:53;15.00;99.90
8872;DHT22;4472;52.092;9.820;2022-11-15T13:57:44;15.00;99.90
8872;DHT22;4472;52.092;9.820;2022-11-15T14:00:36;15.00;99.90
8872;DHT22;4472;52.092;9.820;2022-11-15T14:03:27;14.90;99.90
8872;DHT22;4472;52.092;9.820;2022-11-15T14:06:16;15.00;99.90
8872;DHT22;4472;52.092;9.820;2022-11-15T14:09:30;14.90;99.90
8872;DHT22;4472;52.092;9.820;2022-11-15T14:12:30;14.80;99.90
8872;DHT22;4472;52.092;9.820;2022-11-15T14:15:26;14.70;99.90
8872;DHT22;4472;52.092;9.820;2022-11-15T14:18:44;14.70;99.90
8872;DHT22;4472;52.092;9.820;2022-11-15T14:21:32;14.40;99.90
8872;DHT22;4472;52.092;9.820;2022-11-15T14:24:21;14.40;99.90
8872;DHT22;4472;52.092;9.820;2022-11-15T14:27:23;14.30;99.90
8872;DHT22;4472;52.092;9.820;2022-11-15T14:30:15;14.20;99.90
8872;DHT22;4472;52.092;9.820;2022-11-15T14:33:11;14.20;99.90
8872;DHT22;4472;52.092;9.820;2022-11-15T14:36:04;14.20;99.90
8872;DHT22;4472;52.092;9.820;2022-11-15T14:38:52;14.10;99.90
8872;DHT22;4472;52.092;9.820;2022-11-15T14:41:41;14.10;99.90
8872;DHT22;4472;52.092;9.820;2022-11-15T14:44:28;14.00;99.90
8872;DHT22;4472;52.092;9.820;2022-11-15T14:47:15;14.00;99.90
8872;DHT22;4472;52.092;9.820;2022-11-15T14:50:03;14.00;99.90
8872;DHT22;4472;52.092;9.820;2022-11-15T14:52:51;13.90;99.90
8872;DHT22;4472;52.092;9.820;2022-11-15T14:55:38;13.90;99.90
8872;DHT22;4472;52.092;9.820;2022-11-15T15:12:34;13.60;99.90
8872;DHT22;4472;52.092;9.820;2022-11-15T15:26:40;13.40;99.90
8872;DHT22;4472;52.092;9.820;2022-11-15T15:29:29;13.50;99.90
8872;DHT22;4472;52.092;9.820;2022-11-15T15:32:17;13.30;99.90
8872;DHT22;4472;52.092;9.820;2022-11-15T15:35:05;13.30;99.90
8872;DHT22;4472;52.092;9.820;2022-11-15T15:37:52;13.20;99.90
8872;DHT22;4472;52.092;9.820;2022-11-15T15:40:39;13.10;99.90
8872;DHT22;4472;52.092;9.820;2022-11-15T15:43:26;13.00;99.90
8872;DHT22;4472;52.092;9.820;2022-11-15T15:46:15;12.90;99.90
8872;DHT22;4472;52.092;9.820;2022-11-15T15:49:04;13.00;99.90
8872;DHT22;4472;52.092;9.820;2022-11-15T17:24:26;12.30;99.90
8872;DHT22;4472;52.092;9.820;2022-11-15T18:23:15;12.30;99.90
8872;DHT22;4472;52.092;9.820;2022-11-15T18:26:04;12.40;99.90
8872;DHT22;4472;52.092;9.820;2022-11-15T18:28:54;12.30;99.90
8872;DHT22;4472;52.092;9.820;2022-11-15T18:31:42;12.40;99.90
8872;DHT22;4472;52.092;9.820;2022-11-15T18:34:29;12.40;99.90
8872;DHT22;4472;52.092;9.820;2022-11-15T18:54:12;12.40;99.90
8872;DHT22;4472;52.092;9.820;2022-11-15T18:56:59;12.50;99.90
8872;DHT22;4472;52.092;9.820;2022-11-15T18:59:47;12.50;99.90
8872;DHT22;4472;52.092;9.820;2022-11-15T19:02:34;12.50;99.90
8872;DHT22;4472;52.092;9.820;2022-11-15T19:05:21;12.50;99.90
8872;DHT22;4472;52.092;9.820;2022-11-15T19:08:08;12.50;99.90
8872;DHT22;4472;52.092;9.820;2022-11-15T19:11:01;12.40;99.90
8872;DHT22;4472;52.092;9.820;2022-11-15T19:27:54;12.30;99.90
8872;DHT22;4472;52.092;9.820;2022-11-15T19:30:41;12.40;99.90
8872;DHT22;4472;52.092;9.820;2022-11-15T19:33:29;12.40;99.90
